sensor_id;sensor_type;location;lat;lon;timestamp;temperature;humidity
6964;DHT22;3522;50.856;7.278;2022-11-12T00:00:44;7.90;99.90
6964;DHT22;3522;50.856;7.278;2022-11-12T00:03:10;7.90;99.90
6964;DHT22;3522;50.856;7.278;2022-11-12T00:05:37;7.90;99.90
6964;DHT22;3522;50.856;7.278;2022-11-12T00:08:05;7.90;99.90
6964;DHT22;3522;50.856;7.278;2022-11-12T00:10:31;7.90;99.90
6964;DHT22;3522;50.856;7.278;2022-11-12T00:12:58;7.90;99.90
6964;DHT22;3522;50.856;7.278;2022-11-12T00:15:25;7.90;99.90
6964;DHT22;3522;50.856;7.278;2022-11-12T00:17:52;7.80;99.90
6964;DHT22;3522;50.856;7.278;2022-11-12T00:20:18;7.80;99.90
6964;DHT22;3522;50.856;7.278;2022-11-12T00:22:45;7.80;99.90
6964;DHT22;3522;50.856;7.278;2022-11-12T00:25:13;7.80;99.90
6964;DHT22;3522;50.856;7.278;2022-11-12T00:27:39;7.80;99.90
6964;DHT22;3522;50.856;7.278;2022-11-12T00:30:06;7.80;99.90
6964;DHT22;3522;50.856;7.278;2022-11-12T00:32:34;7.80;99.90
6964;DHT22;3522;50.856;7.278;2022-11-12T00:35:01;7.80;99.90
6964;DHT22;3522;50.856;7.278;2022-11-12T00:37:27;7.70;99.90
6964;DHT22;3522;50.856;7.278;2022-11-12T00:39:54;7.70;99.90
6964;DHT22;3522;50.856;7.278;2022-11-12T00:42:22;7.70;99.90
6964;DHT22;3522;50.856;7.278;2022-11-12T00:44:48;7.70;99.90
6964;DHT22;3522;50.856;7.278;2022-11-12T00:47:15;7.70;99.90
6964;DHT22;3522;50.856;7.278;2022-11-12T00:49:41;7.70;99.90
6964;DHT22;3522;50.856;7.278;2022-11-12T00:52:08;7.70;99.90
6964;DHT22;3522;50.856;7.278;2022-11-12T00:54:34;7.60;99.90
6964;DHT22;3522;50.856;7.278;2022-11-12T00:57:01;7.60;99.90
6964;DHT22;3522;50.856;7.278;2022-11-12T00:59:29;7.60;99.90
6964;DHT22;3522;50.856;7.278;2022-11-12T01:01:55;7.60;99.90
6964;DHT22;3522;50.856;7.278;2022-11-12T01:04:22;7.60;99.90
6964;DHT22;3522;50.856;7.278;2022-11-12T01:06:48;7.60;99.90
6964;DHT22;3522;50.856;7.278;2022-11-12T01:09:15;7.70;99.90
6964;DHT22;3522;50.856;7.278;2022-11-12T01:11:41;7.70;99.90
6964;DHT22;3522;50.856;7.278;2022-11-12T01:14:08;7.70;99.90
6964;DHT22;3522;50.856;7.278;2022-11-12T01:16:37;7.60;99.90
6964;DHT22;3522;50.856;7.278;2022-11-12T01:19:05;7.60;99.90
6964;DHT22;3522;50.856;7.278;2022-11-12T01:21:35;7.60;99.90
6964;DHT22;3522;50.856;7.278;2022-11-12T01:24:02;7.50;99.90
6964;DHT22;3522;50.856;7.278;2022-11-12T01:26:29;7.50;99.90
6964;DHT22;3522;50.856;7.278;2022-11-12T01:28:55;7.50;99.90
6964;DHT22;3522;50.856;7.278;2022-11-12T01:31:24;7.40;99.90
6964;DHT22;3522;50.856;7.278;2022-11-12T01:33:53;7.40;99.90
6964;DHT22;3522;50.856;7.278;2022-11-12T01:36:20;7.40;99.90
6964;DHT22;3522;50.856;7.278;2022-11-12T01:38:47;7.40;99.90
6964;DHT22;3522;50.856;7.278;2022-11-12T01:41:15;7.40;99.90
6964;DHT22;3522;50.856;7.278;2022-11-12T01:43:41;7.40;99.90
6964;DHT22;3522;50.856;7.278;2022-11-12T01:46:10;7.30;99.90
6964;DHT22;3522;50.856;7.278;2022-11-12T01:48:39;7.30;99.90
6964;DHT22;3522;50.856;7.278;2022-11-12T01:51:07;7.30;99.90
6964;DHT22;3522;50.856;7.278;2022-11-12T01:53:36;7.30;99.90
6964;DHT22;3522;50.856;7.278;2022-11-12T01:56:04;7.30;99.90
6964;DHT22;3522;50.856;7.278;2022-11-12T01:58:31;7.30;99.90
6964;DHT22;3522;50.856;7.278;2022-11-12T02:00:58;7.30;99.90
6964;DHT22;3522;50.856;7.278;2022-11-12T02:03:26;7.30;99.90
6964;DHT22;3522;50.856;7.278;2022-11-12T02:05:53;7.30;99.90
6964;DHT22;3522;50.856;7.278;2022-11-12T02:08:23;7.40;99.90
6964;DHT22;3522;50.856;7.278;2022-11-12T02:10:50;7.40;99.90
6964;DHT22;3522;50.856;7.278;2022-11-12T02:13:16;7.30;99.90
6964;DHT22;3522;50.856;7.278;2022-11-12T02:16:01;7.30;99.90
6964;DHT22;3522;50.856;7.278;2022-11-12T02:18:28;7.30;99.90
6964;DHT22;3522;50.856;7.278;2022-11-12T02:20:54;7.30;99.90
6964;DHT22;3522;50.856;7.278;2022-11-12T02:23:23;7.30;99.90
6964;DHT22;3522;50.856;7.278;2022-11-12T02:25:50;7.30;99.90
6964;DHT22;3522;50.856;7.278;2022-11-12T02:28:17;7.30;99.90
6964;DHT22;3522;50.856;7.278;2022-11-12T02:30:44;7.30;99.90
6964;DHT22;3522;50.856;7.278;2022-11-12T02:33:10;7.30;99.90
6964;DHT22;3522;50.856;7.278;2022-11-12T02:35:37;7.30;99.90
6964;DHT22;3522;50.856;7.278;2022-11-12T02:38:03;7.30;99.90
6964;DHT22;3522;50.856;7.278;2022-11-12T02:40:32;7.30;99.90
6964;DHT22;3522;50.856;7.278;2022-11-12T02:42:58;7.30;99.90
6964;DHT22;3522;50.856;7.278;2022-11-12T02:45:25;7.30;99.90
6964;DHT22;3522;50.856;7.278;2022-11-12T02:47:51;7.30;99.90
6964;DHT22;3522;50.856;7.278;2022-11-12T02:50:18;7.30;99.90
6964;DHT22;3522;50.856;7.278;2022-11-12T02:52:45;7.30;99.90
6964;DHT22;3522;50.856;7.278;2022-11-12T02:55:11;7.30;99.90
6964;DHT22;3522;50.856;7.278;2022-11-12T02:57:39;7.30;99.90
6964;DHT22;3522;50.856;7.278;2022-11-12T03:00:07;7.30;99.90
6964;DHT22;3522;50.856;7.278;2022-11-12T03:02:34;7.30;99.90
6964;DHT22;3522;50.856;7.278;2022-11-12T03:05:07;7.30;99.90
6964;DHT22;3522;50.856;7.278;2022-11-12T03:07:34;7.30;99.90
6964;DHT22;3522;50.856;7.278;2022-11-12T03:10:00;7.30;99.90
6964;DHT22;3522;50.856;7.278;2022-11-12T03:12:29;7.30;99.90
6964;DHT22;3522;50.856;7.278;2022-11-12T03:14:57;7.30;99.90
6964;DHT22;3522;50.856;7.278;2022-11-12T03:17:23;7.30;99.90
6964;DHT22;3522;50.856;7.278;2022-11-12T03:19:50;7.30;99.90
6964;DHT22;3522;50.856;7.278;2022-11-12T03:22:16;7.20;99.90
6964;DHT22;3522;50.856;7.278;2022-11-12T03:24:43;7.20;99.90
6964;DHT22;3522;50.856;7.278;2022-11-12T03:27:09;7.20;99.90
6964;DHT22;3522;50.856;7.278;2022-11-12T03:29:36;7.20;99.90
6964;DHT22;3522;50.856;7.278;2022-11-12T03:32:04;7.10;99.90
6964;DHT22;3522;50.856;7.278;2022-11-12T03:34:30;7.10;99.90
6964;DHT22;3522;50.856;7.278;2022-11-12T03:36:57;7.10;99.90
6964;DHT22;3522;50.856;7.278;2022-11-12T03:39:23;7.10;99.90
6964;DHT22;3522;50.856;7.278;2022-11-12T03:41:50;7.00;99.90
6964;DHT22;3522;50.856;7.278;2022-11-12T03:44:16;7.00;99.90
6964;DHT22;3522;50.856;7.278;2022-11-12T03:46:43;7.00;99.90
6964;DHT22;3522;50.856;7.278;2022-11-12T03:49:11;7.00;99.90
6964;DHT22;3522;50.856;7.278;2022-11-12T03:51:37;7.00;99.90
6964;DHT22;3522;50.856;7.278;2022-11-12T03:54:04;7.00;99.90
6964;DHT22;3522;50.856;7.278;2022-11-12T03:56:30;7.00;99.90
6964;DHT22;3522;50.856;7.278;2022-11-12T03:58:57;6.90;99.90
6964;DHT22;3522;50.856;7.278;2022-11-12T04:01:24;6.90;99.90
6964;DHT22;3522;50.856;7.278;2022-11-12T04:03:50;6.90;99.90
6964;DHT22;3522;50.856;7.278;2022-11-12T04:06:18;6.90;99.90
6964;DHT22;3522;50.856;7.278;2022-11-12T04:09:02;6.90;99.90
6964;DHT22;3522;50.856;7.278;2022-11-12T04:11:28;6.90;99.90
6964;DHT22;3522;50.856;7.278;2022-11-12T04:13:55;6.90;99.90
6964;DHT22;3522;50.856;7.278;2022-11-12T04:16:21;6.90;99.90
6964;DHT22;3522;50.856;7.278;2022-11-12T04:19:06;6.90;99.90
6964;DHT22;3522;50.856;7.278;2022-11-12T04:21:51;6.90;99.90
6964;DHT22;3522;50.856;7.278;2022-11-12T04:24:23;6.90;99.90
6964;DHT22;3522;50.856;7.278;2022-11-12T04:27:07;6.90;99.90
6964;DHT22;3522;50.856;7.278;2022-11-12T04:29:34;6.90;99.90
6964;DHT22;3522;50.856;7.278;2022-11-12T04:32:18;6.90;99.90
6964;DHT22;3522;50.856;7.278;2022-11-12T04:34:45;6.90;99.90
6964;DHT22;3522;50.856;7.278;2022-11-12T04:37:13;6.90;99.90
6964;DHT22;3522;50.856;7.278;2022-11-12T04:39:40;6.80;99.90
6964;DHT22;3522;50.856;7.278;2022-11-12T04:42:07;6.80;99.90
6964;DHT22;3522;50.856;7.278;2022-11-12T04:44:51;6.80;99.90
6964;DHT22;3522;50.856;7.278;2022-11-12T04:47:29;6.80;99.90
6964;DHT22;3522;50.856;7.278;2022-11-12T04:49:56;6.80;99.90
6964;DHT22;3522;50.856;7.278;2022-11-12T04:52:24;6.80;99.90
6964;DHT22;3522;50.856;7.278;2022-11-12T04:54:51;6.80;99.90
6964;DHT22;3522;50.856;7.278;2022-11-12T04:57:18;6.80;99.90
6964;DHT22;3522;50.856;7.278;2022-11-12T04:59:45;6.80;99.90
6964;DHT22;3522;50.856;7.278;2022-11-12T05:02:11;6.80;99.90
6964;DHT22;3522;50.856;7.278;2022-11-12T05:04:38;6.80;99.90
6964;DHT22;3522;50.856;7.278;2022-11-12T05:07:05;6.80;99.90
6964;DHT22;3522;50.856;7.278;2022-11-12T05:09:33;6.80;99.90
6964;DHT22;3522;50.856;7.278;2022-11-12T05:11:59;6.80;99.90
6964;DHT22;3522;50.856;7.278;2022-11-12T05:14:26;6.80;99.90
6964;DHT22;3522;50.856;7.278;2022-11-12T05:16:52;6.80;99.90
6964;DHT22;3522;50.856;7.278;2022-11-12T05:19:19;6.80;99.90
6964;DHT22;3522;50.856;7.278;2022-11-12T05:21:45;6.70;99.90
6964;DHT22;3522;50.856;7.278;2022-11-12T05:24:31;6.70;99.90
6964;DHT22;3522;50.856;7.278;2022-11-12T05:26:59;6.70;99.90
6964;DHT22;3522;50.856;7.278;2022-11-12T05:29:25;6.60;99.90
6964;DHT22;3522;50.856;7.278;2022-11-12T05:31:52;6.60;99.90
6964;DHT22;3522;50.856;7.278;2022-11-12T05:34:18;6.60;99.90
6964;DHT22;3522;50.856;7.278;2022-11-12T05:36:45;6.50;99.90
6964;DHT22;3522;50.856;7.278;2022-11-12T05:39:11;6.40;99.90
6964;DHT22;3522;50.856;7.278;2022-11-12T05:41:38;6.40;99.90
6964;DHT22;3522;50.856;7.278;2022-11-12T05:44:06;6.40;99.90
6964;DHT22;3522;50.856;7.278;2022-11-12T05:46:32;6.40;99.90
6964;DHT22;3522;50.856;7.278;2022-11-12T05:48:59;6.40;99.90
6964;DHT22;3522;50.856;7.278;2022-11-12T05:51:25;6.40;99.90
6964;DHT22;3522;50.856;7.278;2022-11-12T05:53:52;6.40;99.90
6964;DHT22;3522;50.856;7.278;2022-11-12T05:56:18;6.40;99.90
6964;DHT22;3522;50.856;7.278;2022-11-12T05:58:45;6.40;99.90
6964;DHT22;3522;50.856;7.278;2022-11-12T06:01:13;6.40;99.90
6964;DHT22;3522;50.856;7.278;2022-11-12T06:03:39;6.50;99.90
6964;DHT22;3522;50.856;7.278;2022-11-12T06:06:06;6.50;99.90
6964;DHT22;3522;50.856;7.278;2022-11-12T06:08:33;6.50;99.90
6964;DHT22;3522;50.856;7.278;2022-11-12T06:10:59;6.50;99.90
6964;DHT22;3522;50.856;7.278;2022-11-12T06:13:26;6.50;99.90
6964;DHT22;3522;50.856;7.278;2022-11-12T06:15:53;6.50;99.90
6964;DHT22;3522;50.856;7.278;2022-11-12T06:18:21;6.40;99.90
6964;DHT22;3522;50.856;7.278;2022-11-12T06:20:48;6.40;99.90
6964;DHT22;3522;50.856;7.278;2022-11-12T06:23:35;6.40;99.90
6964;DHT22;3522;50.856;7.278;2022-11-12T06:26:02;6.40;99.90
6964;DHT22;3522;50.856;7.278;2022-11-12T06:28:28;6.40;99.90
6964;DHT22;3522;50.856;7.278;2022-11-12T06:30:55;6.40;99.90
6964;DHT22;3522;50.856;7.278;2022-11-12T06:33:23;6.40;99.90
6964;DHT22;3522;50.856;7.278;2022-11-12T06:35:55;6.40;99.90
6964;DHT22;3522;50.856;7.278;2022-11-12T06:38:21;6.40;99.90
6964;DHT22;3522;50.856;7.278;2022-11-12T06:40:48;6.40;99.90
6964;DHT22;3522;50.856;7.278;2022-11-12T06:43:14;6.40;99.90
6964;DHT22;3522;50.856;7.278;2022-11-12T06:45:41;6.40;99.90
6964;DHT22;3522;50.856;7.278;2022-11-12T06:48:07;6.40;99.90
6964;DHT22;3522;50.856;7.278;2022-11-12T06:50:35;6.40;99.90
6964;DHT22;3522;50.856;7.278;2022-11-12T06:53:02;6.50;99.90
6964;DHT22;3522;50.856;7.278;2022-11-12T06:55:29;6.50;99.90
6964;DHT22;3522;50.856;7.278;2022-11-12T06:57:55;6.50;99.90
6964;DHT22;3522;50.856;7.278;2022-11-12T07:00:22;6.50;99.90
6964;DHT22;3522;50.856;7.278;2022-11-12T07:02:49;6.50;99.90
6964;DHT22;3522;50.856;7.278;2022-11-12T07:05:15;6.50;99.90
6964;DHT22;3522;50.856;7.278;2022-11-12T07:07:43;6.50;99.90
6964;DHT22;3522;50.856;7.278;2022-11-12T07:10:09;6.50;99.90
6964;DHT22;3522;50.856;7.278;2022-11-12T07:12:36;6.50;99.90
6964;DHT22;3522;50.856;7.278;2022-11-12T07:15:03;6.50;99.90
6964;DHT22;3522;50.856;7.278;2022-11-12T07:17:30;6.50;99.90
6964;DHT22;3522;50.856;7.278;2022-11-12T07:19:56;6.50;99.90
6964;DHT22;3522;50.856;7.278;2022-11-12T07:22:23;6.50;99.90
6964;DHT22;3522;50.856;7.278;2022-11-12T07:24:51;6.50;99.90
6964;DHT22;3522;50.856;7.278;2022-11-12T07:27:17;6.40;99.90
6964;DHT22;3522;50.856;7.278;2022-11-12T07:29:44;6.40;99.90
6964;DHT22;3522;50.856;7.278;2022-11-12T07:32:10;6.40;99.90
6964;DHT22;3522;50.856;7.278;2022-11-12T07:34:37;6.40;99.90
6964;DHT22;3522;50.856;7.278;2022-11-12T07:37:03;6.40;99.90
6964;DHT22;3522;50.856;7.278;2022-11-12T07:39:30;6.40;99.90
6964;DHT22;3522;50.856;7.278;2022-11-12T07:41:58;6.40;99.90
6964;DHT22;3522;50.856;7.278;2022-11-12T07:44:24;6.50;99.90
6964;DHT22;3522;50.856;7.278;2022-11-12T07:46:51;6.50;99.90
6964;DHT22;3522;50.856;7.278;2022-11-12T07:49:17;6.50;99.90
6964;DHT22;3522;50.856;7.278;2022-11-12T07:51:44;6.60;99.90
6964;DHT22;3522;50.856;7.278;2022-11-12T07:54:11;6.60;99.90
6964;DHT22;3522;50.856;7.278;2022-11-12T07:56:38;6.60;99.90
6964;DHT22;3522;50.856;7.278;2022-11-12T07:59:06;6.70;99.90
6964;DHT22;3522;50.856;7.278;2022-11-12T08:01:33;6.70;99.90
6964;DHT22;3522;50.856;7.278;2022-11-12T08:04:00;6.80;99.90
6964;DHT22;3522;50.856;7.278;2022-11-12T08:06:27;6.90;99.90
6964;DHT22;3522;50.856;7.278;2022-11-12T08:08:54;6.90;99.90
6964;DHT22;3522;50.856;7.278;2022-11-12T08:11:21;6.90;99.90
6964;DHT22;3522;50.856;7.278;2022-11-12T08:13:50;7.00;99.90
6964;DHT22;3522;50.856;7.278;2022-11-12T08:16:18;7.00;99.90
6964;DHT22;3522;50.856;7.278;2022-11-12T08:18:45;7.10;99.90
6964;DHT22;3522;50.856;7.278;2022-11-12T08:21:12;7.10;99.90
6964;DHT22;3522;50.856;7.278;2022-11-12T08:23:39;7.20;99.90
6964;DHT22;3522;50.856;7.278;2022-11-12T08:26:07;7.20;99.90
6964;DHT22;3522;50.856;7.278;2022-11-12T08:28:34;7.30;99.90
6964;DHT22;3522;50.856;7.278;2022-11-12T08:31:01;7.30;99.90
6964;DHT22;3522;50.856;7.278;2022-11-12T08:33:30;7.40;99.90
6964;DHT22;3522;50.856;7.278;2022-11-12T08:35:56;7.40;99.90
6964;DHT22;3522;50.856;7.278;2022-11-12T08:38:23;7.50;99.90
6964;DHT22;3522;50.856;7.278;2022-11-12T08:40:49;7.60;99.90
6964;DHT22;3522;50.856;7.278;2022-11-12T08:43:16;7.70;99.90
6964;DHT22;3522;50.856;7.278;2022-11-12T08:45:43;7.80;99.90
6964;DHT22;3522;50.856;7.278;2022-11-12T08:48:11;8.00;99.90
6964;DHT22;3522;50.856;7.278;2022-11-12T08:50:40;8.10;99.90
6964;DHT22;3522;50.856;7.278;2022-11-12T08:53:07;8.20;99.90
6964;DHT22;3522;50.856;7.278;2022-11-12T08:55:34;8.30;99.90
6964;DHT22;3522;50.856;7.278;2022-11-12T08:58:01;8.50;99.90
6964;DHT22;3522;50.856;7.278;2022-11-12T09:00:28;8.60;99.90
6964;DHT22;3522;50.856;7.278;2022-11-12T09:02:54;8.70;99.90
6964;DHT22;3522;50.856;7.278;2022-11-12T09:05:21;8.90;99.90
6964;DHT22;3522;50.856;7.278;2022-11-12T09:07:50;9.00;99.90
6964;DHT22;3522;50.856;7.278;2022-11-12T09:10:21;9.20;99.90
6964;DHT22;3522;50.856;7.278;2022-11-12T09:12:49;9.40;99.90
6964;DHT22;3522;50.856;7.278;2022-11-12T09:15:15;9.60;99.90
6964;DHT22;3522;50.856;7.278;2022-11-12T09:17:42;9.70;99.90
6964;DHT22;3522;50.856;7.278;2022-11-12T09:20:08;9.90;99.90
6964;DHT22;3522;50.856;7.278;2022-11-12T09:22:35;10.10;99.90
6964;DHT22;3522;50.856;7.278;2022-11-12T09:25:05;10.10;99.90
6964;DHT22;3522;50.856;7.278;2022-11-12T09:27:32;10.30;99.90
6964;DHT22;3522;50.856;7.278;2022-11-12T09:29:59;10.40;99.90
6964;DHT22;3522;50.856;7.278;2022-11-12T09:32:25;10.50;99.90
6964;DHT22;3522;50.856;7.278;2022-11-12T09:34:52;10.70;99.90
6964;DHT22;3522;50.856;7.278;2022-11-12T09:37:18;10.90;99.90
6964;DHT22;3522;50.856;7.278;2022-11-12T09:39:45;11.00;99.90
6964;DHT22;3522;50.856;7.278;2022-11-12T09:42:13;11.20;99.90
6964;DHT22;3522;50.856;7.278;2022-11-12T09:44:41;11.40;99.90
6964;DHT22;3522;50.856;7.278;2022-11-12T09:47:11;11.50;99.90
6964;DHT22;3522;50.856;7.278;2022-11-12T09:49:40;11.70;99.90
6964;DHT22;3522;50.856;7.278;2022-11-12T09:52:15;11.90;99.90
6964;DHT22;3522;50.856;7.278;2022-11-12T09:54:42;12.00;99.90
6964;DHT22;3522;50.856;7.278;2022-11-12T09:57:08;12.10;99.90
6964;DHT22;3522;50.856;7.278;2022-11-12T09:59:37;12.20;99.90
6964;DHT22;3522;50.856;7.278;2022-11-12T10:02:13;12.30;99.90
6964;DHT22;3522;50.856;7.278;2022-11-12T10:04:58;12.20;99.90
6964;DHT22;3522;50.856;7.278;2022-11-12T10:07:32;12.40;99.90
6964;DHT22;3522;50.856;7.278;2022-11-12T10:10:03;12.50;99.90
6964;DHT22;3522;50.856;7.278;2022-11-12T10:12:38;12.60;99.90
6964;DHT22;3522;50.856;7.278;2022-11-12T10:15:14;12.70;99.90
6964;DHT22;3522;50.856;7.278;2022-11-12T10:18:00;12.80;99.90
6964;DHT22;3522;50.856;7.278;2022-11-12T10:20:31;12.90;99.90
6964;DHT22;3522;50.856;7.278;2022-11-12T10:23:02;13.00;99.90
6964;DHT22;3522;50.856;7.278;2022-11-12T10:25:31;13.10;99.90
6964;DHT22;3522;50.856;7.278;2022-11-12T10:27:58;13.10;99.90
6964;DHT22;3522;50.856;7.278;2022-11-12T10:30:28;13.10;99.90
6964;DHT22;3522;50.856;7.278;2022-11-12T10:32:55;13.30;99.90
6964;DHT22;3522;50.856;7.278;2022-11-12T10:35:22;13.40;99.90
6964;DHT22;3522;50.856;7.278;2022-11-12T10:37:49;13.40;99.90
6964;DHT22;3522;50.856;7.278;2022-11-12T10:40:30;13.40;99.90
6964;DHT22;3522;50.856;7.278;2022-11-12T10:42:58;13.40;99.90
6964;DHT22;3522;50.856;7.278;2022-11-12T10:45:25;13.40;99.90
6964;DHT22;3522;50.856;7.278;2022-11-12T10:47:53;13.40;99.90
6964;DHT22;3522;50.856;7.278;2022-11-12T10:50:20;13.40;99.90
6964;DHT22;3522;50.856;7.278;2022-11-12T10:52:51;13.40;99.90
6964;DHT22;3522;50.856;7.278;2022-11-12T10:55:19;13.30;99.90
6964;DHT22;3522;50.856;7.278;2022-11-12T10:57:45;13.20;99.90
6964;DHT22;3522;50.856;7.278;2022-11-12T11:00:17;13.00;99.90
6964;DHT22;3522;50.856;7.278;2022-11-12T11:02:47;13.10;99.90
6964;DHT22;3522;50.856;7.278;2022-11-12T11:05:23;13.20;99.90
6964;DHT22;3522;50.856;7.278;2022-11-12T11:07:52;13.30;99.90
6964;DHT22;3522;50.856;7.278;2022-11-12T11:10:22;13.40;99.90
6964;DHT22;3522;50.856;7.278;2022-11-12T11:12:49;13.40;99.90
6964;DHT22;3522;50.856;7.278;2022-11-12T11:15:33;13.40;99.90
6964;DHT22;3522;50.856;7.278;2022-11-12T11:18:00;13.50;99.90
6964;DHT22;3522;50.856;7.278;2022-11-12T11:20:29;13.60;99.90
6964;DHT22;3522;50.856;7.278;2022-11-12T11:23:01;13.70;99.90
6964;DHT22;3522;50.856;7.278;2022-11-12T11:25:29;13.70;99.90
6964;DHT22;3522;50.856;7.278;2022-11-12T11:28:03;13.80;99.90
6964;DHT22;3522;50.856;7.278;2022-11-12T11:30:32;13.80;99.90
6964;DHT22;3522;50.856;7.278;2022-11-12T11:33:06;13.80;99.90
6964;DHT22;3522;50.856;7.278;2022-11-12T11:35:43;13.80;99.90
6964;DHT22;3522;50.856;7.278;2022-11-12T11:38:19;13.80;99.90
6964;DHT22;3522;50.856;7.278;2022-11-12T11:40:47;13.90;99.90
6964;DHT22;3522;50.856;7.278;2022-11-12T11:43:20;13.90;99.90
6964;DHT22;3522;50.856;7.278;2022-11-12T11:45:55;14.10;99.90
6964;DHT22;3522;50.856;7.278;2022-11-12T11:48:27;14.20;99.90
6964;DHT22;3522;50.856;7.278;2022-11-12T11:50:58;14.20;99.90
6964;DHT22;3522;50.856;7.278;2022-11-12T11:53:28;14.30;99.90
6964;DHT22;3522;50.856;7.278;2022-11-12T11:56:00;14.40;99.90
6964;DHT22;3522;50.856;7.278;2022-11-12T11:58:34;14.40;99.90
6964;DHT22;3522;50.856;7.278;2022-11-12T12:01:03;14.30;99.90
6964;DHT22;3522;50.856;7.278;2022-11-12T12:03:37;14.20;99.90
6964;DHT22;3522;50.856;7.278;2022-11-12T12:06:18;14.20;99.90
6964;DHT22;3522;50.856;7.278;2022-11-12T12:08:52;14.30;99.90
6964;DHT22;3522;50.856;7.278;2022-11-12T12:11:24;14.30;99.90
6964;DHT22;3522;50.856;7.278;2022-11-12T12:13:57;14.20;99.90
6964;DHT22;3522;50.856;7.278;2022-11-12T12:19:15;14.20;99.90
6964;DHT22;3522;50.856;7.278;2022-11-12T12:21:47;14.20;99.90
6964;DHT22;3522;50.856;7.278;2022-11-12T12:24:16;14.30;99.90
6964;DHT22;3522;50.856;7.278;2022-11-12T12:26:45;14.30;99.90
6964;DHT22;3522;50.856;7.278;2022-11-12T12:29:13;14.20;99.90
6964;DHT22;3522;50.856;7.278;2022-11-12T12:31:43;14.10;99.90
6964;DHT22;3522;50.856;7.278;2022-11-12T12:34:13;14.00;99.90
6964;DHT22;3522;50.856;7.278;2022-11-12T12:36:41;14.00;99.90
6964;DHT22;3522;50.856;7.278;2022-11-12T12:39:12;14.10;99.90
6964;DHT22;3522;50.856;7.278;2022-11-12T12:41:42;14.10;99.90
6964;DHT22;3522;50.856;7.278;2022-11-12T12:44:10;14.10;99.90
6964;DHT22;3522;50.856;7.278;2022-11-12T12:46:37;14.10;99.90
6964;DHT22;3522;50.856;7.278;2022-11-12T12:49:05;14.10;99.90
6964;DHT22;3522;50.856;7.278;2022-11-12T12:51:32;14.20;99.90
6964;DHT22;3522;50.856;7.278;2022-11-12T12:53:59;14.20;99.90
6964;DHT22;3522;50.856;7.278;2022-11-12T12:56:43;14.20;99.90
6964;DHT22;3522;50.856;7.278;2022-11-12T12:59:17;14.30;99.90
6964;DHT22;3522;50.856;7.278;2022-11-12T13:01:44;14.30;99.90
6964;DHT22;3522;50.856;7.278;2022-11-12T13:07:01;14.30;99.90
6964;DHT22;3522;50.856;7.278;2022-11-12T13:09:27;14.40;99.90
6964;DHT22;3522;50.856;7.278;2022-11-12T13:11:56;14.40;99.90
6964;DHT22;3522;50.856;7.278;2022-11-12T13:14:43;14.40;99.90
6964;DHT22;3522;50.856;7.278;2022-11-12T13:17:11;14.40;99.90
6964;DHT22;3522;50.856;7.278;2022-11-12T13:19:43;14.60;99.90
6964;DHT22;3522;50.856;7.278;2022-11-12T13:24:59;14.60;99.90
6964;DHT22;3522;50.856;7.278;2022-11-12T13:30:09;14.80;99.90
6964;DHT22;3522;50.856;7.278;2022-11-12T13:32:37;15.00;99.90
6964;DHT22;3522;50.856;7.278;2022-11-12T13:38:01;15.00;99.90
6964;DHT22;3522;50.856;7.278;2022-11-12T13:40:33;15.10;99.90
6964;DHT22;3522;50.856;7.278;2022-11-12T13:43:03;15.00;99.90
6964;DHT22;3522;50.856;7.278;2022-11-12T13:45:33;15.00;99.90
6964;DHT22;3522;50.856;7.278;2022-11-12T13:48:04;15.00;99.90
6964;DHT22;3522;50.856;7.278;2022-11-12T13:50:31;14.90;99.90
6964;DHT22;3522;50.856;7.278;2022-11-12T13:52:58;14.90;99.90
6964;DHT22;3522;50.856;7.278;2022-11-12T13:55:25;14.90;99.90
6964;DHT22;3522;50.856;7.278;2022-11-12T13:57:51;14.80;99.90
6964;DHT22;3522;50.856;7.278;2022-11-12T14:00:20;14.90;99.90
6964;DHT22;3522;50.856;7.278;2022-11-12T14:02:49;14.80;99.90
6964;DHT22;3522;50.856;7.278;2022-11-12T14:05:17;14.70;99.90
6964;DHT22;3522;50.856;7.278;2022-11-12T14:07:46;14.60;99.90
6964;DHT22;3522;50.856;7.278;2022-11-12T14:10:18;14.50;99.90
6964;DHT22;3522;50.856;7.278;2022-11-12T14:12:53;14.40;99.90
6964;DHT22;3522;50.856;7.278;2022-11-12T14:15:28;14.30;99.90
6964;DHT22;3522;50.856;7.278;2022-11-12T14:17:59;14.20;99.90
6964;DHT22;3522;50.856;7.278;2022-11-12T14:20:31;14.20;99.90
6964;DHT22;3522;50.856;7.278;2022-11-12T14:23:03;14.10;99.90
6964;DHT22;3522;50.856;7.278;2022-11-12T14:25:30;14.00;99.90
6964;DHT22;3522;50.856;7.278;2022-11-12T14:27:57;14.00;99.90
6964;DHT22;3522;50.856;7.278;2022-11-12T14:30:24;13.90;99.90
6964;DHT22;3522;50.856;7.278;2022-11-12T14:32:51;13.80;99.90
6964;DHT22;3522;50.856;7.278;2022-11-12T14:35:24;13.80;99.90
6964;DHT22;3522;50.856;7.278;2022-11-12T14:37:51;13.70;99.90
6964;DHT22;3522;50.856;7.278;2022-11-12T14:40:20;13.70;99.90
6964;DHT22;3522;50.856;7.278;2022-11-12T14:42:47;13.60;99.90
6964;DHT22;3522;50.856;7.278;2022-11-12T14:45:14;13.50;99.90
6964;DHT22;3522;50.856;7.278;2022-11-12T14:47:41;13.50;99.90
6964;DHT22;3522;50.856;7.278;2022-11-12T14:50:10;13.40;99.90
6964;DHT22;3522;50.856;7.278;2022-11-12T14:52:40;13.30;99.90
6964;DHT22;3522;50.856;7.278;2022-11-12T14:55:08;13.30;99.90
6964;DHT22;3522;50.856;7.278;2022-11-12T14:57:35;13.20;99.90
6964;DHT22;3522;50.856;7.278;2022-11-12T15:00:15;13.10;99.90
6964;DHT22;3522;50.856;7.278;2022-11-12T15:02:42;13.10;99.90
6964;DHT22;3522;50.856;7.278;2022-11-12T15:05:11;13.10;99.90
6964;DHT22;3522;50.856;7.278;2022-11-12T15:07:51;13.00;99.90
6964;DHT22;3522;50.856;7.278;2022-11-12T15:10:27;13.00;99.90
6964;DHT22;3522;50.856;7.278;2022-11-12T15:12:59;12.90;99.90
6964;DHT22;3522;50.856;7.278;2022-11-12T15:15:26;12.90;99.90
6964;DHT22;3522;50.856;7.278;2022-11-12T15:17:55;12.80;99.90
6964;DHT22;3522;50.856;7.278;2022-11-12T15:20:22;12.80;99.90
6964;DHT22;3522;50.856;7.278;2022-11-12T15:22:50;12.70;99.90
6964;DHT22;3522;50.856;7.278;2022-11-12T15:25:18;12.70;99.90
6964;DHT22;3522;50.856;7.278;2022-11-12T15:27:46;12.60;99.90
6964;DHT22;3522;50.856;7.278;2022-11-12T15:30:13;12.60;99.90
6964;DHT22;3522;50.856;7.278;2022-11-12T15:32:40;12.50;99.90
6964;DHT22;3522;50.856;7.278;2022-11-12T15:35:18;12.50;99.90
6964;DHT22;3522;50.856;7.278;2022-11-12T15:37:44;12.40;99.90
6964;DHT22;3522;50.856;7.278;2022-11-12T15:40:14;12.30;99.90
6964;DHT22;3522;50.856;7.278;2022-11-12T15:42:42;12.30;99.90
6964;DHT22;3522;50.856;7.278;2022-11-12T15:45:12;12.20;99.90
6964;DHT22;3522;50.856;7.278;2022-11-12T15:47:40;12.20;99.90
6964;DHT22;3522;50.856;7.278;2022-11-12T15:50:10;12.20;99.90
6964;DHT22;3522;50.856;7.278;2022-11-12T15:52:40;12.10;99.90
6964;DHT22;3522;50.856;7.278;2022-11-12T15:55:07;12.10;99.90
6964;DHT22;3522;50.856;7.278;2022-11-12T15:57:36;12.00;99.90
6964;DHT22;3522;50.856;7.278;2022-11-12T16:00:04;12.00;99.90
6964;DHT22;3522;50.856;7.278;2022-11-12T16:02:32;12.00;99.90
6964;DHT22;3522;50.856;7.278;2022-11-12T16:04:58;11.90;99.90
6964;DHT22;3522;50.856;7.278;2022-11-12T16:07:25;11.90;99.90
6964;DHT22;3522;50.856;7.278;2022-11-12T16:09:51;11.80;99.90
6964;DHT22;3522;50.856;7.278;2022-11-12T16:12:18;11.70;99.90
6964;DHT22;3522;50.856;7.278;2022-11-12T16:14:46;11.70;99.90
6964;DHT22;3522;50.856;7.278;2022-11-12T16:17:13;11.60;99.90
6964;DHT22;3522;50.856;7.278;2022-11-12T16:19:40;11.60;99.90
6964;DHT22;3522;50.856;7.278;2022-11-12T16:22:06;11.50;99.90
6964;DHT22;3522;50.856;7.278;2022-11-12T16:24:37;11.50;99.90
6964;DHT22;3522;50.856;7.278;2022-11-12T16:27:03;11.50;99.90
6964;DHT22;3522;50.856;7.278;2022-11-12T16:29:31;11.40;99.90
6964;DHT22;3522;50.856;7.278;2022-11-12T16:31:59;11.40;99.90
6964;DHT22;3522;50.856;7.278;2022-11-12T16:34:26;11.40;99.90